sensor_id;sensor_type;location;lat;lon;timestamp;P1;durP1;ratioP1;P2;durP2;ratioP2
36303;SDS011;22335;49.800;8.596;2023-02-02T00:03:50;16.55;;;9.40;;
36303;SDS011;22335;49.800;8.596;2023-02-02T00:10:37;14.75;;;8.63;;
36303;SDS011;22335;49.800;8.596;2023-02-02T00:17:21;16.30;;;8.40;;
36303;SDS011;22335;49.800;8.596;2023-02-02T00:24:04;12.70;;;8.45;;
36303;SDS011;22335;49.800;8.596;2023-02-02T00:30:50;16.83;;;9.13;;
36303;SDS011;22335;49.800;8.596;2023-02-02T00:37:34;14.38;;;8.10;;
36303;SDS011;22335;49.800;8.596;2023-02-02T00:44:17;13.60;;;8.13;;
36303;SDS011;22335;49.800;8.596;2023-02-02T00:51:20;11.68;;;8.00;;
36303;SDS011;22335;49.800;8.596;2023-02-02T00:58:03;9.80;;;7.72;;
36303;SDS011;22335;49.800;8.596;2023-02-02T01:04:47;9.05;;;7.18;;
36303;SDS011;22335;49.800;8.596;2023-02-02T01:11:32;10.00;;;7.40;;
36303;SDS011;22335;49.800;8.596;2023-02-02T01:18:15;14.70;;;8.30;;
36303;SDS011;22335;49.800;8.596;2023-02-02T01:24:59;14.60;;;8.30;;
36303;SDS011;22335;49.800;8.596;2023-02-02T01:31:44;16.05;;;7.75;;
36303;SDS011;22335;49.800;8.596;2023-02-02T01:38:28;17.27;;;8.25;;
36303;SDS011;22335;49.800;8.596;2023-02-02T01:45:19;13.98;;;8.13;;
36303;SDS011;22335;49.800;8.596;2023-02-02T01:52:08;15.32;;;9.02;;
36303;SDS011;22335;49.800;8.596;2023-02-02T01:58:54;11.27;;;7.75;;
36303;SDS011;22335;49.800;8.596;2023-02-02T02:05:40;14.07;;;8.18;;
36303;SDS011;22335;49.800;8.596;2023-02-02T02:12:29;16.33;;;7.88;;
36303;SDS011;22335;49.800;8.596;2023-02-02T02:19:17;14.32;;;8.18;;
36303;SDS011;22335;49.800;8.596;2023-02-02T02:26:50;11.35;;;8.23;;
36303;SDS011;22335;49.800;8.596;2023-02-02T02:33:53;14.35;;;7.85;;
36303;SDS011;22335;49.800;8.596;2023-02-02T02:40:43;13.80;;;7.43;;
36303;SDS011;22335;49.800;8.596;2023-02-02T02:47:33;17.02;;;8.23;;
36303;SDS011;22335;49.800;8.596;2023-02-02T02:54:22;11.77;;;7.87;;
36303;SDS011;22335;49.800;8.596;2023-02-02T03:01:12;10.00;;;8.07;;
36303;SDS011;22335;49.800;8.596;2023-02-02T03:08:04;8.70;;;7.10;;
36303;SDS011;22335;49.800;8.596;2023-02-02T03:14:54;12.52;;;7.60;;
36303;SDS011;22335;49.800;8.596;2023-02-02T03:21:37;11.98;;;7.22;;
36303;SDS011;22335;49.800;8.596;2023-02-02T03:28:22;12.13;;;7.78;;
36303;SDS011;22335;49.800;8.596;2023-02-02T03:35:08;11.88;;;7.70;;
36303;SDS011;22335;49.800;8.596;2023-02-02T03:41:52;16.15;;;7.68;;
36303;SDS011;22335;49.800;8.596;2023-02-02T04:03:39;8.48;;;7.47;;
36303;SDS011;22335;49.800;8.596;2023-02-02T04:10:23;10.05;;;7.53;;
36303;SDS011;22335;49.800;8.596;2023-02-02T04:17:07;8.55;;;7.28;;
36303;SDS011;22335;49.800;8.596;2023-02-02T04:23:57;11.30;;;7.53;;
36303;SDS011;22335;49.800;8.596;2023-02-02T04:30:41;12.45;;;7.40;;
36303;SDS011;22335;49.800;8.596;2023-02-02T04:37:25;11.50;;;7.47;;
36303;SDS011;22335;49.800;8.596;2023-02-02T04:44:12;8.07;;;6.75;;
36303;SDS011;22335;49.800;8.596;2023-02-02T04:50:57;10.35;;;7.25;;
36303;SDS011;22335;49.800;8.596;2023-02-02T04:57:43;10.30;;;7.88;;
36303;SDS011;22335;49.800;8.596;2023-02-02T05:04:28;10.07;;;7.30;;
36303;SDS011;22335;49.800;8.596;2023-02-02T05:11:15;10.50;;;6.90;;
36303;SDS011;22335;49.800;8.596;2023-02-02T05:18:02;9.68;;;7.47;;
36303;SDS011;22335;49.800;8.596;2023-02-02T05:24:46;12.13;;;7.95;;
36303;SDS011;22335;49.800;8.596;2023-02-02T05:31:31;9.55;;;7.78;;
36303;SDS011;22335;49.800;8.596;2023-02-02T05:38:14;7.88;;;6.90;;
36303;SDS011;22335;49.800;8.596;2023-02-02T05:45:00;10.02;;;6.93;;
36303;SDS011;22335;49.800;8.596;2023-02-02T05:51:44;8.88;;;6.97;;
36303;SDS011;22335;49.800;8.596;2023-02-02T05:58:31;8.48;;;6.35;;
36303;SDS011;22335;49.800;8.596;2023-02-02T06:05:16;12.10;;;6.85;;
36303;SDS011;22335;49.800;8.596;2023-02-02T06:12:00;7.25;;;6.20;;
36303;SDS011;22335;49.800;8.596;2023-02-02T06:18:44;10.85;;;7.00;;
36303;SDS011;22335;49.800;8.596;2023-02-02T06:25:30;8.07;;;7.07;;
36303;SDS011;22335;49.800;8.596;2023-02-02T06:32:14;11.57;;;6.97;;
36303;SDS011;22335;49.800;8.596;2023-02-02T06:38:58;8.05;;;7.15;;
36303;SDS011;22335;49.800;8.596;2023-02-02T06:45:43;8.32;;;7.22;;
36303;SDS011;22335;49.800;8.596;2023-02-02T06:52:27;8.98;;;6.90;;
36303;SDS011;22335;49.800;8.596;2023-02-02T06:59:10;10.63;;;7.55;;
36303;SDS011;22335;49.800;8.596;2023-02-02T07:05:55;10.23;;;7.70;;
36303;SDS011;22335;49.800;8.596;2023-02-02T07:12:39;11.02;;;6.88;;
36303;SDS011;22335;49.800;8.596;2023-02-02T07:19:23;8.55;;;6.40;;
36303;SDS011;22335;49.800;8.596;2023-02-02T07:26:08;9.40;;;7.13;;
36303;SDS011;22335;49.800;8.596;2023-02-02T07:32:52;14.07;;;7.70;;
36303;SDS011;22335;49.800;8.596;2023-02-02T07:39:36;9.38;;;6.38;;
36303;SDS011;22335;49.800;8.596;2023-02-02T07:46:21;10.55;;;6.80;;
36303;SDS011;22335;49.800;8.596;2023-02-02T07:53:05;9.55;;;7.25;;
36303;SDS011;22335;49.800;8.596;2023-02-02T07:59:49;9.27;;;7.07;;
36303;SDS011;22335;49.800;8.596;2023-02-02T08:06:37;9.20;;;6.40;;
36303;SDS011;22335;49.800;8.596;2023-02-02T08:13:22;9.88;;;6.78;;
36303;SDS011;22335;49.800;8.596;2023-02-02T08:20:06;9.88;;;6.90;;
36303;SDS011;22335;49.800;8.596;2023-02-02T08:26:51;9.65;;;6.78;;
36303;SDS011;22335;49.800;8.596;2023-02-02T08:33:35;7.10;;;6.38;;
36303;SDS011;22335;49.800;8.596;2023-02-02T08:40:20;11.68;;;6.20;;
36303;SDS011;22335;49.800;8.596;2023-02-02T08:47:05;7.32;;;6.47;;
36303;SDS011;22335;49.800;8.596;2023-02-02T08:53:48;9.63;;;6.32;;
36303;SDS011;22335;49.800;8.596;2023-02-02T09:00:32;9.80;;;6.60;;
36303;SDS011;22335;49.800;8.596;2023-02-02T09:07:16;9.93;;;6.53;;
36303;SDS011;22335;49.800;8.596;2023-02-02T09:14:01;11.97;;;6.77;;
36303;SDS011;22335;49.800;8.596;2023-02-02T09:20:46;8.77;;;5.97;;
36303;SDS011;22335;49.800;8.596;2023-02-02T09:27:34;7.97;;;6.15;;
36303;SDS011;22335;49.800;8.596;2023-02-02T09:34:19;6.82;;;6.22;;
36303;SDS011;22335;49.800;8.596;2023-02-02T09:41:11;7.93;;;5.90;;
36303;SDS011;22335;49.800;8.596;2023-02-02T09:48:27;8.02;;;5.90;;
36303;SDS011;22335;49.800;8.596;2023-02-02T09:55:24;8.00;;;6.32;;
36303;SDS011;22335;49.800;8.596;2023-02-02T10:02:16;8.98;;;5.85;;
36303;SDS011;22335;49.800;8.596;2023-02-02T10:09:07;6.70;;;5.90;;
36303;SDS011;22335;49.800;8.596;2023-02-02T10:16:09;6.13;;;5.55;;
36303;SDS011;22335;49.800;8.596;2023-02-02T10:22:58;12.02;;;5.70;;
36303;SDS011;22335;49.800;8.596;2023-02-02T10:29:58;6.00;;;5.40;;
36303;SDS011;22335;49.800;8.596;2023-02-02T10:36:49;6.32;;;5.72;;
36303;SDS011;22335;49.800;8.596;2023-02-02T10:43:50;8.63;;;5.80;;
36303;SDS011;22335;49.800;8.596;2023-02-02T10:50:59;7.13;;;6.43;;
36303;SDS011;22335;49.800;8.596;2023-02-02T10:57:50;6.40;;;5.80;;
36303;SDS011;22335;49.800;8.596;2023-02-02T11:04:43;6.80;;;6.20;;
36303;SDS011;22335;49.800;8.596;2023-02-02T11:11:46;6.38;;;5.78;;
36303;SDS011;22335;49.800;8.596;2023-02-02T11:18:34;8.40;;;6.30;;
36303;SDS011;22335;49.800;8.596;2023-02-02T11:25:21;7.47;;;6.13;;
36303;SDS011;22335;49.800;8.596;2023-02-02T11:32:24;6.20;;;5.70;;
36303;SDS011;22335;49.800;8.596;2023-02-02T11:39:13;5.85;;;5.40;;
36303;SDS011;22335;49.800;8.596;2023-02-02T11:46:01;5.70;;;5.30;;
36303;SDS011;22335;49.800;8.596;2023-02-02T11:52:50;7.60;;;5.50;;
36303;SDS011;22335;49.800;8.596;2023-02-02T11:59:35;6.03;;;5.57;;
36303;SDS011;22335;49.800;8.596;2023-02-02T12:06:20;5.85;;;5.45;;
36303;SDS011;22335;49.800;8.596;2023-02-02T12:20:18;5.35;;;4.88;;
36303;SDS011;22335;49.800;8.596;2023-02-02T12:27:15;6.55;;;5.60;;
36303;SDS011;22335;49.800;8.596;2023-02-02T12:34:14;6.43;;;5.70;;
36303;SDS011;22335;49.800;8.596;2023-02-02T12:41:16;6.30;;;5.80;;
36303;SDS011;22335;49.800;8.596;2023-02-02T12:48:25;6.10;;;5.70;;
36303;SDS011;22335;49.800;8.596;2023-02-02T12:55:27;5.90;;;5.50;;
36303;SDS011;22335;49.800;8.596;2023-02-02T13:02:25;6.50;;;5.90;;
36303;SDS011;22335;49.800;8.596;2023-02-02T13:09:18;5.75;;;5.35;;
36303;SDS011;22335;49.800;8.596;2023-02-02T13:16:10;5.80;;;5.30;;
36303;SDS011;22335;49.800;8.596;2023-02-02T13:22:56;5.95;;;5.55;;
36303;SDS011;22335;49.800;8.596;2023-02-02T13:29:47;6.30;;;5.70;;
36303;SDS011;22335;49.800;8.596;2023-02-02T13:36:36;6.75;;;6.15;;
36303;SDS011;22335;49.800;8.596;2023-02-02T13:43:27;6.70;;;6.20;;
36303;SDS011;22335;49.800;8.596;2023-02-02T13:50:19;6.50;;;5.80;;
36303;SDS011;22335;49.800;8.596;2023-02-02T13:57:15;6.55;;;5.95;;
36303;SDS011;22335;49.800;8.596;2023-02-02T14:04:19;6.45;;;6.03;;
36303;SDS011;22335;49.800;8.596;2023-02-02T14:11:05;6.32;;;5.80;;
36303;SDS011;22335;49.800;8.596;2023-02-02T14:17:54;5.95;;;5.65;;
36303;SDS011;22335;49.800;8.596;2023-02-02T14:24:39;6.07;;;5.53;;
36303;SDS011;22335;49.800;8.596;2023-02-02T14:31:39;6.32;;;5.82;;
36303;SDS011;22335;49.800;8.596;2023-02-02T14:38:44;6.17;;;5.80;;
36303;SDS011;22335;49.800;8.596;2023-02-02T14:45:43;5.70;;;5.22;;
36303;SDS011;22335;49.800;8.596;2023-02-02T14:52:29;6.60;;;6.07;;
36303;SDS011;22335;49.800;8.596;2023-02-02T14:59:16;6.20;;;5.70;;
36303;SDS011;22335;49.800;8.596;2023-02-02T15:06:04;5.82;;;5.32;;
36303;SDS011;22335;49.800;8.596;2023-02-02T15:13:02;6.63;;;5.97;;
36303;SDS011;22335;49.800;8.596;2023-02-02T15:19:54;6.72;;;6.22;;
36303;SDS011;22335;49.800;8.596;2023-02-02T15:26:48;6.35;;;5.82;;
36303;SDS011;22335;49.800;8.596;2023-02-02T15:33:34;6.43;;;5.93;;
36303;SDS011;22335;49.800;8.596;2023-02-02T15:40:23;6.10;;;5.63;;
36303;SDS011;22335;49.800;8.596;2023-02-02T15:47:10;6.88;;;5.70;;
36303;SDS011;22335;49.800;8.596;2023-02-02T15:53:57;7.07;;;6.38;;
36303;SDS011;22335;49.800;8.596;2023-02-02T16:00:42;7.18;;;6.00;;
36303;SDS011;22335;49.800;8.596;2023-02-02T16:07:27;7.10;;;6.50;;
36303;SDS011;22335;49.800;8.596;2023-02-02T16:14:15;8.00;;;5.90;;
36303;SDS011;22335;49.800;8.596;2023-02-02T16:21:01;7.15;;;6.45;;
36303;SDS011;22335;49.800;8.596;2023-02-02T16:27:51;6.97;;;6.47;;
36303;SDS011;22335;49.800;8.596;2023-02-02T16:34:43;9.40;;;6.65;;
36303;SDS011;22335;49.800;8.596;2023-02-02T16:41:29;6.10;;;5.60;;
36303;SDS011;22335;49.800;8.596;2023-02-02T16:48:26;6.82;;;6.10;;
36303;SDS011;22335;49.800;8.596;2023-02-02T16:55:15;5.63;;;5.22;;
36303;SDS011;22335;49.800;8.596;2023-02-02T17:02:02;5.55;;;5.10;;
36303;SDS011;22335;49.800;8.596;2023-02-02T17:09:14;6.82;;;5.72;;
36303;SDS011;22335;49.800;8.596;2023-02-02T17:16:16;5.82;;;5.50;;
36303;SDS011;22335;49.800;8.596;2023-02-02T17:23:04;7.57;;;5.38;;
36303;SDS011;22335;49.800;8.596;2023-02-02T17:29:50;5.93;;;5.40;;
36303;SDS011;22335;49.800;8.596;2023-02-02T17:36:35;6.22;;;5.63;;
36303;SDS011;22335;49.800;8.596;2023-02-02T17:43:20;6.32;;;5.68;;
36303;SDS011;22335;49.800;8.596;2023-02-02T17:50:04;6.47;;;5.30;;
36303;SDS011;22335;49.800;8.596;2023-02-02T17:56:48;6.10;;;5.60;;
36303;SDS011;22335;49.800;8.596;2023-02-02T18:03:33;9.18;;;6.63;;
36303;SDS011;22335;49.800;8.596;2023-02-02T18:10:21;7.00;;;6.30;;
36303;SDS011;22335;49.800;8.596;2023-02-02T18:17:06;8.23;;;6.53;;
36303;SDS011;22335;49.800;8.596;2023-02-02T18:23:51;7.35;;;6.68;;
36303;SDS011;22335;49.800;8.596;2023-02-02T18:30:36;7.43;;;6.45;;
36303;SDS011;22335;49.800;8.596;2023-02-02T18:37:20;7.35;;;6.43;;
36303;SDS011;22335;49.800;8.596;2023-02-02T18:44:05;8.95;;;6.47;;
36303;SDS011;22335;49.800;8.596;2023-02-02T18:50:49;7.70;;;6.40;;
36303;SDS011;22335;49.800;8.596;2023-02-02T18:57:32;7.20;;;6.50;;
36303;SDS011;22335;49.800;8.596;2023-02-02T19:04:17;9.32;;;6.57;;
36303;SDS011;22335;49.800;8.596;2023-02-02T19:11:04;10.13;;;6.68;;
36303;SDS011;22335;49.800;8.596;2023-02-02T19:17:56;8.43;;;6.15;;
36303;SDS011;22335;49.800;8.596;2023-02-02T19:24:40;7.03;;;6.43;;
36303;SDS011;22335;49.800;8.596;2023-02-02T19:31:24;11.75;;;7.53;;
36303;SDS011;22335;49.800;8.596;2023-02-02T19:38:08;10.07;;;7.20;;
36303;SDS011;22335;49.800;8.596;2023-02-02T19:44:57;10.25;;;7.07;;
36303;SDS011;22335;49.800;8.596;2023-02-02T19:51:41;10.75;;;7.55;;
36303;SDS011;22335;49.800;8.596;2023-02-02T19:58:27;10.13;;;7.50;;
36303;SDS011;22335;49.800;8.596;2023-02-02T20:05:19;8.73;;;7.75;;
36303;SDS011;22335;49.800;8.596;2023-02-02T20:12:11;12.93;;;7.85;;
36303;SDS011;22335;49.800;8.596;2023-02-02T20:19:08;8.88;;;7.68;;
36303;SDS011;22335;49.800;8.596;2023-02-02T20:26:00;12.32;;;8.10;;
36303;SDS011;22335;49.800;8.596;2023-02-02T20:32:50;9.90;;;8.80;;
36303;SDS011;22335;49.800;8.596;2023-02-02T20:39:39;10.25;;;8.30;;
36303;SDS011;22335;49.800;8.596;2023-02-02T20:46:32;12.10;;;8.80;;
36303;SDS011;22335;49.800;8.596;2023-02-02T20:53:15;10.95;;;8.52;;
36303;SDS011;22335;49.800;8.596;2023-02-02T20:59:59;9.63;;;7.82;;
36303;SDS011;22335;49.800;8.596;2023-02-02T21:06:44;9.80;;;8.80;;
36303;SDS011;22335;49.800;8.596;2023-02-02T21:13:29;10.65;;;7.43;;
36303;SDS011;22335;49.800;8.596;2023-02-02T21:20:12;14.25;;;8.90;;
36303;SDS011;22335;49.800;8.596;2023-02-02T21:26:58;10.85;;;8.05;;
36303;SDS011;22335;49.800;8.596;2023-02-02T21:33:43;11.93;;;8.13;;
36303;SDS011;22335;49.800;8.596;2023-02-02T21:40:28;11.88;;;8.00;;
36303;SDS011;22335;49.800;8.596;2023-02-02T21:47:31;9.77;;;8.27;;
36303;SDS011;22335;49.800;8.596;2023-02-02T21:54:19;9.93;;;8.18;;
36303;SDS011;22335;49.800;8.596;2023-02-02T22:01:13;11.30;;;7.97;;
36303;SDS011;22335;49.800;8.596;2023-02-02T22:08:06;11.43;;;8.30;;
36303;SDS011;22335;49.800;8.596;2023-02-02T22:15:04;11.15;;;8.07;;
36303;SDS011;22335;49.800;8.596;2023-02-02T22:22:15;12.70;;;9.25;;
36303;SDS011;22335;49.800;8.596;2023-02-02T22:29:05;12.52;;;8.40;;
36303;SDS011;22335;49.800;8.596;2023-02-02T22:35:55;11.05;;;7.90;;
36303;SDS011;22335;49.800;8.596;2023-02-02T22:42:38;12.00;;;8.40;;
36303;SDS011;22335;49.800;8.596;2023-02-02T22:49:23;12.38;;;8.52;;
36303;SDS011;22335;49.800;8.596;2023-02-02T22:56:07;9.30;;;7.65;;
36303;SDS011;22335;49.800;8.596;2023-02-02T23:02:50;10.95;;;8.57;;
36303;SDS011;22335;49.800;8.596;2023-02-02T23:09:36;10.02;;;7.90;;
36303;SDS011;22335;49.800;8.596;2023-02-02T23:16:20;12.68;;;9.30;;
36303;SDS011;22335;49.800;8.596;2023-02-02T23:23:03;9.60;;;7.90;;
36303;SDS011;22335;49.800;8.596;2023-02-02T23:29:48;11.75;;;8.10;;
36303;SDS011;22335;49.800;8.596;2023-02-02T23:36:32;11.68;;;9.20;;
36303;SDS011;22335;49.800;8.596;2023-02-02T23:43:16;11.88;;;9.23;;
36303;SDS011;22335;49.800;8.596;2023-02-02T23:50:02;10.50;;;9.30;;
36303;SDS011;22335;49.800;8.596;2023-02-02T23:56:48;9.98;;;9.00;;
